Time;durP1;ratioP1;P1;durP2;ratioP2;P2;SDS_P1;SDS_P2;PMS_P1;PMS_P2;Temp;Humidity;BMP_temperature;BMP_pressure;BME280_temperature;BME280_humidity;BME280_pressure;Samples;Min_cycle;Max_cycle;Signal;HPM_P1;HPM_P2
2022/04/05 00:00:32;;;;;;;464.27;443.50;;;;;;;;;;5054107;28;20462;-69
2022/04/05 00:02:58;;;;;;;21.50;13.40;;;;;;;;;;5054706;28;20462;-68
2022/04/05 00:05:24;;;;;;;17.20;10.93;;;;;;;;;;5073829;28;20435;-69
2022/04/05 00:07:49;;;;;;;15.43;7.88;;;;;;;;;;5068758;28;20086;-69
2022/04/05 00:10:16;;;;;;;11.75;7.60;;;;;;;;;;5081448;22;20544;-73
2022/04/05 00:12:42;;;;;;;13.65;7.30;;;;;;;;;;5067320;28;20095;-72
2022/04/05 00:15:09;;;;;;;11.40;6.45;;;;;;;;;;5061847;28;20043;-72
2022/04/05 00:17:35;;;;;;;13.07;6.45;;;;;;;;;;5071019;28;20044;-73
2022/04/05 00:20:01;;;;;;;11.48;5.32;;;;;;;;;;5070446;28;20028;-72
2022/04/05 00:22:27;;;;;;;12.70;5.63;;;;;;;;;;5073417;28;20102;-72
2022/04/05 00:24:54;;;;;;;9.20;4.80;;;;;;;;;;5071856;28;20050;-72
2022/04/05 00:27:19;;;;;;;11.40;4.00;;;;;;;;;;5070393;28;20024;-71
2022/04/05 00:29:46;;;;;;;11.93;4.13;;;;;;;;;;5066964;28;20030;-70
2022/04/05 00:32:12;;;;;;;6.38;3.35;;;;;;;;;;5072308;28;20025;-69
2022/04/05 00:34:39;;;;;;;7.57;3.40;;;;;;;;;;5069902;28;20024;-69
2022/04/05 00:37:05;;;;;;;7.30;3.30;;;;;;;;;;5073081;28;20469;-69
2022/04/05 00:39:31;;;;;;;6.07;3.20;;;;;;;;;;5074068;28;20028;-69
2022/04/05 00:41:57;;;;;;;9.95;2.45;;;;;;;;;;5072980;28;20056;-68
2022/04/05 00:44:24;;;;;;;7.45;3.03;;;;;;;;;;5064377;28;20047;-69
2022/04/05 00:46:52;;;;;;;3.97;2.47;;;;;;;;;;5071757;28;20078;-68
2022/04/05 00:49:23;;;;;;;6.30;2.50;;;;;;;;;;5070528;28;20029;-69
2022/04/05 00:51:49;;;;;;;7.47;2.60;;;;;;;;;;5070575;28;20057;-69
2022/04/05 00:54:16;;;;;;;7.70;2.95;;;;;;;;;;5072643;28;20116;-68
2022/04/05 00:56:43;;;;;;;6.80;3.13;;;;;;;;;;5071358;28;20125;-68
2022/04/05 00:59:09;;;;;;;10.20;2.95;;;;;;;;;;5064071;28;20423;-68
2022/04/05 01:01:36;;;;;;;7.18;3.50;;;;;;;;;;5071242;28;20081;-69
2022/04/05 01:04:03;;;;;;;8.13;3.10;;;;;;;;;;5070472;28;20061;-69
2022/04/05 01:06:35;;;;;;;7.95;3.10;;;;;;;;;;5067599;28;20447;-69
2022/04/05 01:09:01;;;;;;;9.88;3.20;;;;;;;;;;5063584;28;20028;-69
2022/04/05 01:11:27;;;;;;;9.35;3.55;;;;;;;;;;5065811;28;20036;-69
2022/04/05 01:13:53;;;;;;;7.22;3.78;;;;;;;;;;5069181;28;20044;-70
2022/04/05 01:16:20;;;;;;;9.00;3.83;;;;;;;;;;5071092;28;20021;-69
2022/04/05 01:18:46;;;;;;;8.93;4.38;;;;;;;;;;5071358;28;20435;-68
2022/04/05 01:21:14;;;;;;;7.95;3.85;;;;;;;;;;5068242;28;20051;-69
2022/04/05 01:23:43;;;;;;;9.98;3.95;;;;;;;;;;5072227;28;20045;-70
2022/04/05 01:26:09;;;;;;;9.13;3.10;;;;;;;;;;5072096;28;20097;-69
2022/04/05 01:28:35;;;;;;;7.13;3.10;;;;;;;;;;5070545;28;20025;-70
2022/04/05 01:31:01;;;;;;;6.68;2.58;;;;;;;;;;5071614;28;20060;-69
2022/04/05 01:33:28;;;;;;;6.25;2.50;;;;;;;;;;5062162;28;20126;-69
2022/04/05 01:35:54;;;;;;;4.60;2.50;;;;;;;;;;5069013;28;20461;-69
2022/04/05 01:38:20;;;;;;;8.30;2.83;;;;;;;;;;5071167;28;20029;-69
2022/04/05 01:40:47;;;;;;;7.13;2.72;;;;;;;;;;5071074;28;20024;-69
2022/04/05 01:43:13;;;;;;;9.32;2.90;;;;;;;;;;5070291;28;20039;-69
2022/04/05 01:45:39;;;;;;;9.55;3.00;;;;;;;;;;5071877;28;20036;-69
2022/04/05 01:48:05;;;;;;;9.35;3.08;;;;;;;;;;5070272;28;20389;-69
2022/04/05 01:50:31;;;;;;;8.93;3.80;;;;;;;;;;5063346;28;20120;-69
2022/04/05 01:52:58;;;;;;;8.73;2.70;;;;;;;;;;5071136;28;20036;-69
2022/04/05 01:55:23;;;;;;;9.98;3.17;;;;;;;;;;5071232;28;20033;-69
2022/04/05 01:57:50;;;;;;;11.30;3.00;;;;;;;;;;5064100;28;20396;-69
2022/04/05 02:00:17;;;;;;;5.38;2.42;;;;;;;;;;5069609;28;20532;-69
2022/04/05 02:02:43;;;;;;;10.57;2.63;;;;;;;;;;5069885;28;20075;-68
2022/04/05 02:05:10;;;;;;;14.43;3.17;;;;;;;;;;5068904;28;20036;-69
2022/04/05 02:07:37;;;;;;;10.43;2.13;;;;;;;;;;5063726;28;20020;-70
2022/04/05 02:10:04;;;;;;;8.45;3.35;;;;;;;;;;5069416;28;20114;-69
2022/04/05 02:12:29;;;;;;;6.93;2.65;;;;;;;;;;5067374;28;20036;-69
2022/04/05 02:14:55;;;;;;;9.27;2.40;;;;;;;;;;5065338;28;20388;-69
2022/04/05 02:17:21;;;;;;;4.78;2.30;;;;;;;;;;5070152;28;20477;-69
2022/04/05 02:19:47;;;;;;;10.00;2.22;;;;;;;;;;5069872;28;20468;-70
2022/04/05 02:22:13;;;;;;;7.72;2.28;;;;;;;;;;5070607;28;20040;-70
2022/04/05 02:24:39;;;;;;;7.07;2.90;;;;;;;;;;5070889;28;20064;-70
2022/04/05 02:27:05;;;;;;;10.15;2.45;;;;;;;;;;5069859;28;20374;-70
2022/04/05 02:29:32;;;;;;;10.57;2.83;;;;;;;;;;5062229;28;20020;-70
2022/04/05 02:31:58;;;;;;;9.93;2.60;;;;;;;;;;5070864;28;20378;-70
2022/04/05 02:34:24;;;;;;;7.35;3.28;;;;;;;;;;5071379;28;20035;-70
2022/04/05 02:36:50;;;;;;;7.75;2.92;;;;;;;;;;5070629;28;20090;-71
2022/04/05 02:39:16;;;;;;;7.53;2.28;;;;;;;;;;5071228;28;20025;-70
2022/04/05 02:41:42;;;;;;;8.57;2.10;;;;;;;;;;5069203;28;20059;-70
2022/04/05 02:44:08;;;;;;;7.43;2.47;;;;;;;;;;5060848;28;20029;-70
2022/04/05 02:46:34;;;;;;;11.27;2.75;;;;;;;;;;5071213;28;20025;-70
2022/04/05 02:49:00;;;;;;;9.75;2.47;;;;;;;;;;5071267;28;20393;-70
2022/04/05 02:51:26;;;;;;;10.35;3.22;;;;;;;;;;5070635;28;20112;-71
2022/04/05 02:53:52;;;;;;;8.15;2.70;;;;;;;;;;5068958;28;20025;-70
2022/04/05 02:56:19;;;;;;;7.63;2.08;;;;;;;;;;5071026;28;20100;-70
2022/04/05 02:58:47;;;;;;;10.05;2.53;;;;;;;;;;5064747;28;20397;-70
2022/04/05 03:01:13;;;;;;;8.75;2.42;;;;;;;;;;5068403;28;20025;-69
2022/04/05 03:03:39;;;;;;;9.57;2.50;;;;;;;;;;5070231;28;20028;-70
2022/04/05 03:06:05;;;;;;;6.20;2.40;;;;;;;;;;5066171;28;20043;-68
2022/04/05 03:08:31;;;;;;;12.95;2.90;;;;;;;;;;5068640;28;20115;-69
2022/04/05 03:10:57;;;;;;;8.38;3.13;;;;;;;;;;5072899;28;20032;-69
2022/04/05 03:13:23;;;;;;;8.70;3.00;;;;;;;;;;5080642;28;20094;-68
2022/04/05 03:15:49;;;;;;;8.70;2.88;;;;;;;;;;5084530;28;20056;-68
2022/04/05 03:18:15;;;;;;;9.38;2.40;;;;;;;;;;5083655;28;20035;-69
2022/04/05 03:20:41;;;;;;;8.85;2.83;;;;;;;;;;5075037;28;20037;-69
2022/04/05 03:23:07;;;;;;;8.50;2.90;;;;;;;;;;5073136;28;20071;-70
2022/04/05 03:25:34;;;;;;;8.95;2.22;;;;;;;;;;5070739;28;20060;-70
2022/04/05 03:28:04;;;;;;;6.82;2.00;;;;;;;;;;5072059;28;20085;-70
2022/04/05 03:30:30;;;;;;;13.68;2.70;;;;;;;;;;5064393;28;20107;-69
2022/04/05 03:32:56;;;;;;;8.68;2.72;;;;;;;;;;5074423;28;20035;-69
2022/04/05 03:35:22;;;;;;;10.10;2.47;;;;;;;;;;5071685;28;20024;-70
2022/04/05 03:37:48;;;;;;;8.10;2.35;;;;;;;;;;5073953;28;20028;-70
2022/04/05 03:40:14;;;;;;;7.82;2.13;;;;;;;;;;5072324;28;20400;-70
2022/04/05 03:42:40;;;;;;;13.20;2.97;;;;;;;;;;5073293;28;20029;-71
2022/04/05 03:45:06;;;;;;;9.95;2.40;;;;;;;;;;5064626;28;20556;-70
2022/04/05 03:47:32;;;;;;;11.40;2.50;;;;;;;;;;5065844;28;20096;-70
2022/04/05 03:49:59;;;;;;;9.90;4.18;;;;;;;;;;5073398;28;20028;-70
2022/04/05 03:52:25;;;;;;;9.95;2.85;;;;;;;;;;5072536;28;20048;-70
2022/04/05 03:54:51;;;;;;;12.30;3.00;;;;;;;;;;5064667;28;20507;-67
2022/04/05 03:57:17;;;;;;;10.82;3.10;;;;;;;;;;5068392;28;20032;-67
2022/04/05 03:59:43;;;;;;;13.68;3.38;;;;;;;;;;5061182;28;20060;-68
2022/04/05 04:02:09;;;;;;;12.82;3.30;;;;;;;;;;5073108;28;20448;-68
2022/04/05 04:04:35;;;;;;;8.00;2.80;;;;;;;;;;5073630;28;20108;-68
2022/04/05 04:07:02;;;;;;;12.88;3.25;;;;;;;;;;5070779;28;20035;-69
2022/04/05 04:09:28;;;;;;;9.63;2.80;;;;;;;;;;5068456;28;20021;-69
2022/04/05 04:11:54;;;;;;;7.35;2.97;;;;;;;;;;5068519;28;20040;-66
2022/04/05 04:14:20;;;;;;;10.07;3.00;;;;;;;;;;5071509;28;20093;-68
2022/04/05 04:16:46;;;;;;;11.13;3.30;;;;;;;;;;5079038;28;20039;-67
2022/04/05 04:19:12;;;;;;;9.43;3.15;;;;;;;;;;5079438;28;20497;-67
2022/04/05 04:21:38;;;;;;;17.48;3.42;;;;;;;;;;5077554;28;20101;-67
2022/04/05 04:24:04;;;;;;;11.70;3.17;;;;;;;;;;5076024;28;20029;-66
2022/04/05 04:26:30;;;;;;;10.55;3.10;;;;;;;;;;5066015;28;20024;-68
2022/04/05 04:28:59;;;;;;;12.40;3.08;;;;;;;;;;5064002;28;20218;-68
2022/04/05 04:31:25;;;;;;;10.55;3.38;;;;;;;;;;5072132;28;20029;-69
2022/04/05 04:33:51;;;;;;;9.90;3.25;;;;;;;;;;5071929;28;20495;-69
2022/04/05 04:36:18;;;;;;;13.20;3.20;;;;;;;;;;5069525;28;20143;-68
2022/04/05 04:38:45;;;;;;;11.48;3.08;;;;;;;;;;5072258;28;20071;-68
2022/04/05 04:41:12;;;;;;;23.98;4.80;;;;;;;;;;5073853;28;20040;-67
2022/04/05 04:43:38;;;;;;;7.50;2.88;;;;;;;;;;5072014;28;20148;-68
2022/04/05 04:46:04;;;;;;;10.43;3.17;;;;;;;;;;5071704;28;20028;-67
2022/04/05 04:48:30;;;;;;;11.07;3.50;;;;;;;;;;5072516;28;20031;-68
2022/04/05 04:50:56;;;;;;;10.63;2.60;;;;;;;;;;5071254;28;20036;-67
2022/04/05 04:53:22;;;;;;;13.15;3.63;;;;;;;;;;5071735;28;20572;-68
2022/04/05 04:55:48;;;;;;;7.30;2.72;;;;;;;;;;5072427;28;20107;-68
2022/04/05 04:58:15;;;;;;;14.85;3.28;;;;;;;;;;5070528;28;20488;-67
2022/04/05 05:00:41;;;;;;;8.75;2.67;;;;;;;;;;5072066;28;20086;-67
2022/04/05 05:03:07;;;;;;;8.40;2.50;;;;;;;;;;5071566;28;20040;-68
2022/04/05 05:05:33;;;;;;;10.80;3.83;;;;;;;;;;5069163;28;20043;-69
2022/04/05 05:07:59;;;;;;;13.40;3.45;;;;;;;;;;5069122;28;20042;-71
2022/04/05 05:10:25;;;;;;;10.15;3.63;;;;;;;;;;5070321;28;20055;-68
2022/04/05 05:12:50;;;;;;;11.15;3.22;;;;;;;;;;5066162;28;20394;-66
2022/04/05 05:15:18;;;;;;;13.50;4.05;;;;;;;;;;5071676;28;20039;-67
2022/04/05 05:17:45;;;;;;;10.65;3.28;;;;;;;;;;5070113;28;20029;-66
2022/04/05 05:20:12;;;;;;;9.48;2.88;;;;;;;;;;5068892;28;20029;-66
2022/04/05 05:22:39;;;;;;;10.27;3.08;;;;;;;;;;5069497;28;20290;-67
2022/04/05 05:25:05;;;;;;;10.13;3.53;;;;;;;;;;5061653;28;20032;-68
2022/04/05 05:27:31;;;;;;;14.80;3.33;;;;;;;;;;5071974;28;20097;-66
2022/04/05 05:29:57;;;;;;;14.73;3.97;;;;;;;;;;5066643;28;20488;-67
2022/04/05 05:32:23;;;;;;;10.65;3.35;;;;;;;;;;5066469;28;20043;-65
2022/04/05 05:34:49;;;;;;;13.68;3.58;;;;;;;;;;5069826;28;20086;-66
2022/04/05 05:37:15;;;;;;;13.75;3.05;;;;;;;;;;5064840;28;20039;-66
2022/04/05 05:39:41;;;;;;;10.10;3.30;;;;;;;;;;5057525;28;20039;-66
2022/04/05 05:42:08;;;;;;;13.82;3.47;;;;;;;;;;5071765;28;20484;-66
2022/04/05 05:44:34;;;;;;;9.52;3.00;;;;;;;;;;5066752;28;20039;-66
2022/04/05 05:47:01;;;;;;;11.15;3.13;;;;;;;;;;5071514;28;20044;-66
2022/04/05 05:49:27;;;;;;;10.95;3.42;;;;;;;;;;5068828;28;20028;-66
2022/04/05 05:51:53;;;;;;;17.73;4.13;;;;;;;;;;5071477;28;20031;-66
2022/04/05 05:54:19;;;;;;;13.90;3.17;;;;;;;;;;5069645;28;20472;-66
2022/04/05 05:56:45;;;;;;;12.98;3.33;;;;;;;;;;5070869;28;20025;-66
2022/04/05 05:59:11;;;;;;;13.10;3.60;;;;;;;;;;5071841;28;20100;-67
2022/04/05 06:01:38;;;;;;;10.75;2.92;;;;;;;;;;5068644;28;20074;-67
2022/04/05 06:04:04;;;;;;;10.65;3.05;;;;;;;;;;5067182;28;20048;-67
2022/04/05 06:06:30;;;;;;;12.75;3.28;;;;;;;;;;5071287;28;20078;-66
2022/04/05 06:08:56;;;;;;;8.80;2.65;;;;;;;;;;5093976;22;20396;-74
2022/04/05 06:11:23;;;;;;;9.45;2.95;;;;;;;;;;5050450;28;20036;-75
2022/04/05 06:13:49;;;;;;;14.18;3.30;;;;;;;;;;5054508;28;20025;-75
2022/04/05 06:16:15;;;;;;;15.38;2.97;;;;;;;;;;5050975;28;20043;-75
2022/04/05 06:18:47;;;;;;;13.93;3.25;;;;;;;;;;5054147;28;20025;-75
2022/04/05 06:21:13;;;;;;;10.40;2.30;;;;;;;;;;5052366;28;20045;-75
2022/04/05 06:23:39;;;;;;;12.27;2.88;;;;;;;;;;5069341;28;20501;-75
2022/04/05 06:26:05;;;;;;;15.52;3.38;;;;;;;;;;5054810;28;20544;-76
2022/04/05 06:28:31;;;;;;;13.60;3.33;;;;;;;;;;5052090;28;20059;-76
2022/04/05 06:30:57;;;;;;;11.82;3.28;;;;;;;;;;5054870;28;20033;-76
2022/04/05 06:33:24;;;;;;;8.38;3.22;;;;;;;;;;5048221;28;20104;-76
2022/04/05 06:35:56;;;;;;;11.05;3.35;;;;;;;;;;5053103;28;20059;-76
2022/04/05 06:38:23;;;;;;;12.43;3.70;;;;;;;;;;5050634;28;20033;-75
2022/04/05 06:40:49;;;;;;;6.88;2.60;;;;;;;;;;5052198;28;20397;-75
2022/04/05 06:43:15;;;;;;;10.63;3.53;;;;;;;;;;5053953;28;20033;-74
2022/04/05 06:45:42;;;;;;;14.77;3.42;;;;;;;;;;5051588;28;20033;-76
2022/04/05 06:48:09;;;;;;;11.18;4.18;;;;;;;;;;5056881;28;20039;-75
2022/04/05 06:50:36;;;;;;;8.88;3.25;;;;;;;;;;5053973;28;20562;-76
2022/04/05 06:53:02;;;;;;;12.43;3.33;;;;;;;;;;5056826;28;20413;-75
2022/04/05 06:55:29;;;;;;;12.60;3.10;;;;;;;;;;5057882;28;20029;-75
2022/04/05 06:57:55;;;;;;;9.88;2.72;;;;;;;;;;5057121;28;20029;-75
2022/04/05 07:00:23;;;;;;;8.73;2.30;;;;;;;;;;5057984;28;20492;-74
2022/04/05 07:02:49;;;;;;;10.65;2.97;;;;;;;;;;5055532;28;20040;-75
2022/04/05 07:05:15;;;;;;;8.77;2.47;;;;;;;;;;5059145;28;20037;-75
2022/04/05 07:07:41;;;;;;;5.47;2.72;;;;;;;;;;5055852;28;20052;-74
2022/04/05 07:10:08;;;;;;;8.98;2.40;;;;;;;;;;5058046;28;20037;-74
2022/04/05 07:12:35;;;;;;;9.57;2.33;;;;;;;;;;5054894;28;20028;-75
2022/04/05 07:15:01;;;;;;;7.30;2.20;;;;;;;;;;5053146;28;20122;-75
2022/04/05 07:17:27;;;;;;;5.80;2.10;;;;;;;;;;5056408;28;20036;-74
2022/04/05 07:19:53;;;;;;;7.88;1.83;;;;;;;;;;5053790;28;20035;-75
2022/04/05 07:22:19;;;;;;;10.70;2.17;;;;;;;;;;5056645;28;20083;-76
2022/04/05 07:24:46;;;;;;;11.13;2.00;;;;;;;;;;5050941;28;20080;-75
2022/04/05 07:27:12;;;;;;;7.68;2.30;;;;;;;;;;5061210;28;20322;-74
2022/04/05 07:29:39;;;;;;;8.52;2.30;;;;;;;;;;5056161;28;20064;-75
2022/04/05 07:32:05;;;;;;;5.20;2.08;;;;;;;;;;5054212;28;20029;-76
2022/04/05 07:34:31;;;;;;;6.32;1.95;;;;;;;;;;5057550;28;20033;-76
2022/04/05 07:36:57;;;;;;;9.35;2.22;;;;;;;;;;5055254;28;20040;-75
2022/04/05 07:39:23;;;;;;;7.20;2.35;;;;;;;;;;5057149;28;20040;-76
2022/04/05 07:41:49;;;;;;;12.93;3.00;;;;;;;;;;5066888;28;20063;-76
2022/04/05 07:44:16;;;;;;;9.10;2.35;;;;;;;;;;5072112;28;20033;-76
2022/04/05 07:46:42;;;;;;;6.13;1.77;;;;;;;;;;5074815;28;20021;-75
2022/04/05 07:49:08;;;;;;;9.02;2.22;;;;;;;;;;5071566;28;20025;-76
2022/04/05 07:51:34;;;;;;;10.43;2.60;;;;;;;;;;5073473;28;20032;-76
2022/04/05 07:54:00;;;;;;;6.30;2.00;;;;;;;;;;5071063;28;20029;-75
2022/04/05 07:56:26;;;;;;;4.88;1.83;;;;;;;;;;5073929;28;20040;-76
2022/04/05 07:58:52;;;;;;;3.45;1.70;;;;;;;;;;5069065;28;20025;-77
2022/04/05 08:01:18;;;;;;;4.40;1.90;;;;;;;;;;5088149;28;20056;-76
2022/04/05 08:03:45;;;;;;;6.65;1.65;;;;;;;;;;5061172;28;20025;-75
2022/04/05 08:06:11;;;;;;;8.82;2.03;;;;;;;;;;5061022;28;20043;-76
2022/04/05 08:08:37;;;;;;;7.50;1.80;;;;;;;;;;5061972;28;20044;-75
2022/04/05 08:11:03;;;;;;;6.22;1.60;;;;;;;;;;5056706;28;20033;-76
2022/04/05 08:13:29;;;;;;;4.43;1.55;;;;;;;;;;5057849;28;20028;-77
2022/04/05 08:15:56;;;;;;;4.50;2.03;;;;;;;;;;5056954;28;20030;-76
2022/04/05 08:18:22;;;;;;;4.35;1.70;;;;;;;;;;5074961;28;20033;-77
2022/04/05 08:20:48;;;;;;;5.32;1.65;;;;;;;;;;5072833;28;20025;-76
2022/04/05 08:23:14;;;;;;;4.28;1.65;;;;;;;;;;5068412;28;20400;-75
2022/04/05 08:25:41;;;;;;;7.25;2.10;;;;;;;;;;5057790;28;20430;-77
2022/04/05 08:28:07;;;;;;;7.63;1.73;;;;;;;;;;5055983;28;20017;-77
2022/04/05 08:30:33;;;;;;;5.22;1.38;;;;;;;;;;5055690;28;20096;-76
2022/04/05 08:33:00;;;;;;;4.13;1.25;;;;;;;;;;5055127;28;20040;-76
2022/04/05 08:35:26;;;;;;;4.53;1.40;;;;;;;;;;5056362;28;20040;-76
2022/04/05 08:37:53;;;;;;;3.92;1.48;;;;;;;;;;5063144;28;20104;-77
2022/04/05 08:40:20;;;;;;;4.78;1.20;;;;;;;;;;5059982;28;20032;-77
2022/04/05 08:42:51;;;;;;;4.85;1.48;;;;;;;;;;5063543;28;20017;-77
2022/04/05 08:45:18;;;;;;;4.30;1.50;;;;;;;;;;5059084;28;20512;-77
2022/04/05 08:47:46;;;;;;;6.45;1.45;;;;;;;;;;5060851;28;20032;-78
2022/04/05 08:50:13;;;;;;;6.63;1.70;;;;;;;;;;5078764;28;20056;-77
2022/04/05 08:52:39;;;;;;;5.75;1.67;;;;;;;;;;5059371;28;20021;-78
2022/04/05 08:55:05;;;;;;;6.88;1.48;;;;;;;;;;5055636;28;20059;-75
2022/04/05 08:57:32;;;;;;;8.38;2.05;;;;;;;;;;5053121;28;20435;-75
2022/04/05 08:59:58;;;;;;;5.10;1.63;;;;;;;;;;5055362;28;20037;-75
2022/04/05 09:02:25;;;;;;;4.68;1.80;;;;;;;;;;5048947;28;20173;-76
2022/04/05 09:04:51;;;;;;;4.72;1.90;;;;;;;;;;5054358;28;20070;-77
2022/04/05 09:07:21;;;;;;;4.93;1.70;;;;;;;;;;5054128;28;20021;-78
2022/04/05 09:10:05;;;;;;;5.30;1.80;;;;;;;;;;5053737;28;20029;-79
2022/04/05 09:12:39;;;;;;;6.53;1.83;;;;;;;;;;5054304;28;20028;-77
2022/04/05 09:15:08;;;;;;;6.95;1.95;;;;;;;;;;5040270;28;20030;-76
2022/04/05 09:17:39;;;;;;;8.32;2.03;;;;;;;;;;5051512;28;20366;-76
2022/04/05 09:20:06;;;;;;;6.43;1.95;;;;;;;;;;5053373;28;20036;-79
2022/04/05 09:22:35;;;;;;;6.35;1.60;;;;;;;;;;5053100;28;20032;-76
2022/04/05 09:25:05;;;;;;;6.53;1.52;;;;;;;;;;5065402;28;20029;-76
2022/04/05 09:27:46;;;;;;;4.15;1.50;;;;;;;;;;5051958;28;20033;-76
2022/04/05 09:30:23;;;;;;;5.00;1.67;;;;;;;;;;5044547;28;20032;-74
2022/04/05 09:32:50;;;;;;;5.10;1.60;;;;;;;;;;5035417;28;20018;-76
2022/04/05 09:35:18;;;;;;;7.05;1.52;;;;;;;;;;5050031;28;20092;-77
2022/04/05 09:37:44;;;;;;;6.50;1.65;;;;;;;;;;5061397;28;20024;-75
2022/04/05 09:40:32;;;;;;;6.63;1.58;;;;;;;;;;5058626;28;20025;-76
2022/04/05 09:43:12;;;;;;;7.03;1.95;;;;;;;;;;5059531;28;20026;-77
2022/04/05 09:45:46;;;;;;;5.95;1.60;;;;;;;;;;5032915;28;20482;-75
2022/04/05 09:48:13;;;;;;;7.20;1.75;;;;;;;;;;5036863;28;20100;-76
2022/04/05 09:51:00;;;;;;;7.63;1.60;;;;;;;;;;5048686;28;20162;-75
2022/04/05 09:53:29;;;;;;;4.93;1.63;;;;;;;;;;5052908;28;20082;-77
2022/04/05 09:56:02;;;;;;;4.55;1.70;;;;;;;;;;5049875;28;20036;-76
2022/04/05 09:58:28;;;;;;;5.25;1.83;;;;;;;;;;5051361;28;20060;-76
2022/04/05 10:01:08;;;;;;;4.47;1.60;;;;;;;;;;5049769;28;20591;-76
2022/04/05 10:03:42;;;;;;;7.05;1.83;;;;;;;;;;5053269;28;20024;-76
2022/04/05 10:06:08;;;;;;;7.93;1.92;;;;;;;;;;5052681;28;20470;-77
2022/04/05 10:08:35;;;;;;;4.95;1.88;;;;;;;;;;5056660;28;20025;-77
2022/04/05 10:11:01;;;;;;;6.60;1.98;;;;;;;;;;5052608;28;20029;-78
2022/04/05 10:13:28;;;;;;;5.65;1.67;;;;;;;;;;5051204;28;20162;-75
2022/04/05 10:15:54;;;;;;;5.97;1.90;;;;;;;;;;5052953;28;20251;-76
2022/04/05 10:18:21;;;;;;;5.32;1.80;;;;;;;;;;5050902;28;20056;-77
2022/04/05 10:20:51;;;;;;;5.13;2.10;;;;;;;;;;5054042;28;20155;-77
2022/04/05 10:23:23;;;;;;;4.80;2.03;;;;;;;;;;5052698;28;20033;-78
2022/04/05 10:25:51;;;;;;;6.85;2.00;;;;;;;;;;5056230;28;20039;-78
2022/04/05 10:28:19;;;;;;;6.97;2.00;;;;;;;;;;5053794;28;20037;-76
2022/04/05 10:30:48;;;;;;;6.63;2.20;;;;;;;;;;5048211;28;20055;-77
2022/04/05 10:33:26;;;;;;;7.82;2.15;;;;;;;;;;5052612;28;20021;-77
2022/04/05 10:35:58;;;;;;;4.65;1.77;;;;;;;;;;5065707;28;20435;-77
2022/04/05 10:38:25;;;;;;;4.88;1.92;;;;;;;;;;5051388;28;20033;-77
2022/04/05 10:41:09;;;;;;;7.03;2.38;;;;;;;;;;5047869;28;20036;-77
2022/04/05 10:43:38;;;;;;;6.68;2.10;;;;;;;;;;5055433;28;20116;-77
2022/04/05 10:46:04;;;;;;;8.02;2.10;;;;;;;;;;5050899;28;20033;-74
2022/04/05 10:48:31;;;;;;;7.93;1.83;;;;;;;;;;5053751;28;20424;-76
2022/04/05 10:51:00;;;;;;;4.28;1.70;;;;;;;;;;5053272;28;20013;-76
2022/04/05 10:53:31;;;;;;;6.57;2.10;;;;;;;;;;5050529;28;20116;-76
2022/04/05 10:56:03;;;;;;;5.70;1.65;;;;;;;;;;5052085;28;20461;-75
2022/04/05 10:58:48;;;;;;;6.95;1.60;;;;;;;;;;5052787;28;20102;-76
2022/04/05 11:01:16;;;;;;;7.80;2.13;;;;;;;;;;5053138;28;20083;-76
2022/04/05 11:03:44;;;;;;;6.65;1.20;;;;;;;;;;5050760;28;20017;-76
2022/04/05 11:06:10;;;;;;;2.35;1.25;;;;;;;;;;5052047;28;20061;-77
2022/04/05 11:08:37;;;;;;;3.53;1.20;;;;;;;;;;5057001;28;20084;-77
2022/04/05 11:11:05;;;;;;;3.67;1.42;;;;;;;;;;5059463;28;20032;-76
2022/04/05 11:13:33;;;;;;;3.25;1.30;;;;;;;;;;5062766;28;20085;-76
2022/04/05 11:15:59;;;;;;;3.67;1.30;;;;;;;;;;5059944;28;20025;-75
2022/04/05 11:18:30;;;;;;;4.88;1.60;;;;;;;;;;5056475;28;21424;-78
2022/04/05 11:20:57;;;;;;;5.90;1.50;;;;;;;;;;5052147;28;20548;-76
2022/04/05 11:23:42;;;;;;;8.43;1.70;;;;;;;;;;5055911;28;20372;-76
2022/04/05 11:26:28;;;;;;;7.30;1.55;;;;;;;;;;5056961;28;20108;-76
2022/04/05 11:28:54;;;;;;;6.22;1.48;;;;;;;;;;5061352;28;20025;-77
2022/04/05 11:31:48;;;;;;;4.53;1.90;;;;;;;;;;5060302;28;20374;-77
2022/04/05 11:34:37;;;;;;;4.28;1.40;;;;;;;;;;5052878;28;20516;-77
2022/04/05 11:37:03;;;;;;;6.15;1.75;;;;;;;;;;5059617;28;20029;-76
2022/04/05 11:39:29;;;;;;;7.57;2.03;;;;;;;;;;5052798;28;20151;-76
2022/04/05 11:41:59;;;;;;;4.80;1.20;;;;;;;;;;5053720;28;20017;-76
2022/04/05 11:44:25;;;;;;;4.82;1.48;;;;;;;;;;5057379;28;20019;-76
2022/04/05 11:46:52;;;;;;;6.35;1.35;;;;;;;;;;5055233;28;20021;-76
2022/04/05 11:49:18;;;;;;;7.43;1.85;;;;;;;;;;5052912;28;20377;-76
2022/04/05 11:51:47;;;;;;;5.22;1.40;;;;;;;;;;5035848;28;20026;-76
2022/04/05 11:54:17;;;;;;;6.60;1.67;;;;;;;;;;5045584;28;20021;-74
2022/04/05 11:56:43;;;;;;;8.20;2.75;;;;;;;;;;5050256;28;20028;-76
2022/04/05 11:59:13;;;;;;;4.60;1.80;;;;;;;;;;5053272;28;20025;-76
2022/04/05 12:01:42;;;;;;;5.13;1.70;;;;;;;;;;5052441;28;20048;-76
2022/04/05 12:04:09;;;;;;;5.72;1.70;;;;;;;;;;5054846;28;20029;-76
2022/04/05 12:06:37;;;;;;;6.05;1.63;;;;;;;;;;5052282;28;20462;-77
2022/04/05 12:09:04;;;;;;;6.35;1.38;;;;;;;;;;5050965;28;20025;-77
2022/04/05 12:11:32;;;;;;;2.95;1.50;;;;;;;;;;5055518;28;20033;-76
2022/04/05 12:13:59;;;;;;;5.57;1.33;;;;;;;;;;5054973;28;20044;-78
2022/04/05 12:16:29;;;;;;;7.05;1.65;;;;;;;;;;5052785;28;20043;-77
2022/04/05 12:18:55;;;;;;;3.33;1.38;;;;;;;;;;5054419;28;20029;-76
2022/04/05 12:21:24;;;;;;;4.90;1.60;;;;;;;;;;5052558;28;20032;-76
2022/04/05 12:23:50;;;;;;;5.07;1.65;;;;;;;;;;5054247;28;20431;-76
2022/04/05 12:26:18;;;;;;;10.60;2.10;;;;;;;;;;5050241;28;20029;-76
2022/04/05 12:28:45;;;;;;;7.65;1.90;;;;;;;;;;5054317;28;20481;-75
2022/04/05 12:31:22;;;;;;;7.47;1.90;;;;;;;;;;5055111;28;20083;-76
2022/04/05 12:34:02;;;;;;;6.82;1.90;;;;;;;;;;5056786;28;20478;-78
2022/04/05 12:36:48;;;;;;;9.50;2.35;;;;;;;;;;5064693;28;20032;-78
2022/04/05 12:39:20;;;;;;;6.10;1.70;;;;;;;;;;5057594;28;20028;-78
2022/04/05 12:41:51;;;;;;;4.97;1.88;;;;;;;;;;5042034;28;20466;-77
2022/04/05 12:44:19;;;;;;;6.85;1.83;;;;;;;;;;5053202;28;20025;-76
2022/04/05 12:46:44;;;;;;;5.82;1.73;;;;;;;;;;5053439;28;20028;-77
2022/04/05 12:49:31;;;;;;;6.15;1.58;;;;;;;;;;5057216;28;20047;-77
2022/04/05 12:52:10;;;;;;;4.10;1.45;;;;;;;;;;5055109;28;20025;-76
2022/04/05 12:54:37;;;;;;;3.83;1.35;;;;;;;;;;5055771;28;20029;-77
2022/04/05 12:57:15;;;;;;;4.55;1.60;;;;;;;;;;5053206;28;20029;-74
2022/04/05 12:59:42;;;;;;;4.25;1.95;;;;;;;;;;5051779;28;20048;-77
2022/04/05 13:02:14;;;;;;;5.57;1.98;;;;;;;;;;5052759;28;20029;-77
2022/04/05 13:04:40;;;;;;;3.42;1.63;;;;;;;;;;5056526;28;20519;-76
2022/04/05 13:07:06;;;;;;;5.53;1.90;;;;;;;;;;5058406;28;20033;-75
2022/04/05 13:09:36;;;;;;;3.90;1.90;;;;;;;;;;5072756;28;20449;-76
2022/04/05 13:12:09;;;;;;;6.28;1.80;;;;;;;;;;5053734;28;20049;-76
2022/04/05 13:14:35;;;;;;;7.10;2.08;;;;;;;;;;5057339;28;20054;-77
2022/04/05 13:17:02;;;;;;;4.28;2.10;;;;;;;;;;5057841;28;20079;-75
2022/04/05 13:19:28;;;;;;;8.02;1.90;;;;;;;;;;5067042;28;20038;-75
2022/04/05 13:21:55;;;;;;;3.80;1.95;;;;;;;;;;5074192;28;20209;-76
2022/04/05 13:24:28;;;;;;;4.68;1.52;;;;;;;;;;5057325;28;20043;-76
2022/04/05 13:26:54;;;;;;;5.57;2.00;;;;;;;;;;5060550;28;20036;-76
2022/04/05 13:29:23;;;;;;;5.25;1.90;;;;;;;;;;5053767;28;20025;-76
2022/04/05 13:31:51;;;;;;;6.57;1.98;;;;;;;;;;5055375;28;20025;-77
2022/04/05 13:34:23;;;;;;;5.03;2.03;;;;;;;;;;5053386;28;20112;-77
2022/04/05 13:36:50;;;;;;;5.35;1.83;;;;;;;;;;5058926;28;20021;-76
2022/04/05 13:39:16;;;;;;;8.48;2.00;;;;;;;;;;5057034;28;20029;-77
2022/04/05 13:41:42;;;;;;;6.20;1.80;;;;;;;;;;5055422;28;20028;-76
2022/04/05 13:44:09;;;;;;;4.95;1.98;;;;;;;;;;5052221;28;20033;-76
2022/04/05 13:46:36;;;;;;;8.20;2.33;;;;;;;;;;5052816;28;20572;-76
2022/04/05 13:49:06;;;;;;;4.53;1.90;;;;;;;;;;5050820;28;20040;-77
2022/04/05 13:51:33;;;;;;;5.85;1.83;;;;;;;;;;5041240;28;20025;-77
2022/04/05 13:53:59;;;;;;;4.63;1.90;;;;;;;;;;5053083;28;20470;-76
2022/04/05 13:56:25;;;;;;;2.78;1.40;;;;;;;;;;5068006;28;20036;-76
2022/04/05 13:58:51;;;;;;;4.25;1.75;;;;;;;;;;5071342;28;20032;-75
2022/04/05 14:01:17;;;;;;;5.72;1.80;;;;;;;;;;5064205;28;20067;-76
2022/04/05 14:03:43;;;;;;;5.13;1.83;;;;;;;;;;5065473;28;20035;-75
2022/04/05 14:06:09;;;;;;;5.28;2.15;;;;;;;;;;5062083;28;20059;-73
2022/04/05 14:08:35;;;;;;;3.65;1.80;;;;;;;;;;5046098;28;20017;-73
2022/04/05 14:11:01;;;;;;;6.82;2.05;;;;;;;;;;5048697;28;20083;-76
2022/04/05 14:13:27;;;;;;;4.43;1.80;;;;;;;;;;5051597;28;20089;-77
2022/04/05 14:15:53;;;;;;;5.00;1.92;;;;;;;;;;5045024;28;20334;-77
2022/04/05 14:18:19;;;;;;;7.80;2.53;;;;;;;;;;5044382;28;20032;-77
2022/04/05 14:20:45;;;;;;;7.65;2.33;;;;;;;;;;5053851;28;20112;-77
2022/04/05 14:23:11;;;;;;;3.08;1.90;;;;;;;;;;5044667;28;20102;-77
2022/04/05 14:25:37;;;;;;;5.03;2.30;;;;;;;;;;5052802;28;20029;-78
2022/04/05 14:28:04;;;;;;;5.80;2.10;;;;;;;;;;5053536;28;20047;-76
2022/04/05 14:30:30;;;;;;;6.22;2.05;;;;;;;;;;5050916;28;20021;-76
2022/04/05 14:32:56;;;;;;;5.10;2.22;;;;;;;;;;5045024;28;20037;-76
2022/04/05 14:35:22;;;;;;;6.57;2.03;;;;;;;;;;5062139;28;20037;-77
2022/04/05 14:37:48;;;;;;;4.28;2.30;;;;;;;;;;5041590;28;20030;-77
2022/04/05 14:40:14;;;;;;;8.48;1.90;;;;;;;;;;5042433;28;20410;-76